Portada
METAR-TAF:

METAR-TAF

Aeropuertos :

Aeropuerto Internacional de Harbin

Harbin, China

latitud: 45-45N, longitud: 126-46E, altitud: 143 m

Observación

El informe se hizo hace 19 minutos, a las 06:00 UTC
Viento 8 kt del oeste-suroeste
Temperatura -6°C
Humedad 41%
Presión 1019 hPa
Visibilidad: 8000 m

METAR: ZYHB 190600Z 25004MPS 8000 NSC M06/M17 Q1019 NOSIG

Hora: 14:19 (06:19 UTC)

Pronóstico

El informe se hizo hace 3 horas y 17 minutos, a las 03:02 UTC
Pronóstico válido del 19 a las 06 UTC al 20 a las 06 UTC
Viento 6 kt del sur-suroeste
Visibilidad: 5000 m
humo

TAF: ZYHB 190302Z 1906/2006 21003MPS 5000 FU NSC TXM08/06Z TNM20/21Z

Observaciones y pronósticos meteorológicos de más de 4000 aeropuertos (mensajes METAR y TAF).

Los puntos amarillos y rojos representan las estaciones disponibles.

Ponga el ratón en el punto deseado para ver el nombre de la estación.

Haga clic para ver las observaciones y los pronósticos meteorológicos.

Para cambiar el mapa : haga clic en los botones verdes con una cruz de color negro para hacer un zoom, en el botón verde con un guión para alejar o en las flechas verdes para mapas adyacentes.


METAR-TAF: